createdAt,value
2023-04-07T00:02:09.148Z,70.58
2023-04-07T00:07:13.364Z,69.60
2023-04-07T00:12:17.412Z,69.92
2023-04-07T00:17:21.545Z,69.61
2023-04-07T00:22:25.371Z,69.85
2023-04-07T00:27:29.516Z,70.41
2023-04-07T00:32:34.654Z,70.26
2023-04-07T00:37:39.372Z,70.19
2023-04-07T00:42:43.407Z,69.80
2023-04-07T00:47:47.627Z,69.75
2023-04-07T00:52:52.356Z,69.65
2023-04-07T00:57:56.207Z,69.88
2023-04-07T01:03:12.904Z,70.14
2023-04-07T01:08:20.747Z,69.88
2023-04-07T01:13:39.837Z,70.40
2023-04-07T01:19:37.536Z,70.87
2023-04-07T01:24:52.496Z,70.36
2023-04-07T01:29:57.865Z,70.25
2023-04-07T01:35:04.082Z,70.37
2023-04-07T01:40:10.271Z,70.49
2023-04-07T01:45:16.099Z,70.86
2023-04-07T01:50:21.955Z,71.20
2023-04-07T01:55:26.929Z,71.43
2023-04-07T02:00:44.258Z,71.35
2023-04-07T02:05:57.428Z,71.20
2023-04-07T02:11:08.608Z,70.74
2023-04-07T02:16:14.998Z,70.62
2023-04-07T02:21:20.369Z,70.66
2023-04-07T02:26:24.265Z,68.87
2023-04-07T02:31:28.652Z,69.11
2023-04-07T02:36:32.895Z,67.98
2023-04-07T02:41:36.846Z,67.97
2023-04-07T02:46:42.151Z,68.20
2023-04-07T02:51:47.635Z,67.33
2023-04-07T02:56:52.365Z,67.50
2023-04-07T03:01:56.529Z,67.09
2023-04-07T03:07:01.362Z,66.71
2023-04-07T03:12:09.696Z,66.42
2023-04-07T03:17:14.306Z,66.88
2023-04-07T03:22:19.282Z,66.11
2023-04-07T03:27:27.560Z,66.31
2023-04-07T03:32:31.668Z,66.40
2023-04-07T03:37:35.524Z,65.16
2023-04-07T03:42:41.836Z,65.10
2023-04-07T03:47:48.153Z,64.68
2023-04-07T03:52:53.478Z,64.59
2023-04-07T03:58:03.399Z,63.85
2023-04-07T04:03:12.139Z,63.79
2023-04-07T04:08:28.339Z,64.17
2023-04-07T04:13:33.084Z,64.30
2023-04-07T04:18:41.305Z,65.14
2023-04-07T04:23:47.839Z,67.17
2023-04-07T04:28:52.010Z,68.17
2023-04-07T04:33:58.251Z,69.31
2023-04-07T04:39:02.834Z,70.23
2023-04-07T04:44:07.499Z,70.76
2023-04-07T04:49:12.741Z,70.92
2023-04-07T04:54:17.694Z,71.18
2023-04-07T04:59:23.633Z,71.76
2023-04-07T05:04:37.872Z,72.55
2023-04-07T05:10:09.491Z,72.10
2023-04-07T05:15:19.790Z,72.74
2023-04-07T05:20:26.808Z,73.44
2023-04-07T05:25:33.097Z,73.28
2023-04-07T05:30:40.517Z,73.47
2023-04-07T05:35:48.109Z,73.23
2023-04-07T05:40:52.566Z,73.21
2023-04-07T05:46:08.498Z,73.13
2023-04-07T05:51:20.659Z,73.79
2023-04-07T05:56:26.351Z,73.97
2023-04-07T06:01:32.433Z,74.46
2023-04-07T06:06:36.602Z,74.78
2023-04-07T06:11:40.796Z,75.25
2023-04-07T06:16:44.946Z,75.17
2023-04-07T06:21:49.560Z,74.90
2023-04-07T06:26:53.881Z,75.07
2023-04-07T06:31:57.824Z,75.12
2023-04-07T06:37:02.285Z,75.52
2023-04-07T06:42:06.284Z,75.66
2023-04-07T06:47:16.309Z,75.90
2023-04-07T06:52:20.250Z,75.16
2023-04-07T06:57:25.073Z,75.42
2023-04-07T07:02:29.146Z,76.19
2023-04-07T07:07:33.253Z,76.03
2023-04-07T07:12:37.397Z,76.95
2023-04-07T07:17:42.354Z,75.80
2023-04-07T07:22:46.486Z,76.40
2023-04-07T07:27:54.238Z,76.99
2023-04-07T07:32:58.148Z,77.89
2023-04-07T07:38:02.562Z,77.95
2023-04-07T07:43:07.548Z,77.91
2023-04-07T07:48:12.083Z,77.59
2023-04-07T07:53:16.456Z,76.56
2023-04-07T07:58:20.434Z,75.52
2023-04-07T08:03:25.480Z,75.87
2023-04-07T08:08:29.407Z,75.94
2023-04-07T08:13:33.495Z,76.78
2023-04-07T08:18:38.283Z,76.71
2023-04-07T08:23:42.677Z,76.64
2023-04-07T08:28:52.557Z,76.41
2023-04-07T08:33:58.868Z,77.03
2023-04-07T08:39:05.242Z,77.25
2023-04-07T08:44:12.410Z,76.72
2023-04-07T08:49:19.151Z,77.27
2023-04-07T08:54:25.556Z,76.76
2023-04-07T08:59:30.342Z,76.12
2023-04-07T09:04:34.720Z,74.34
2023-04-07T09:09:38.580Z,73.59
2023-04-07T09:14:42.598Z,73.57
2023-04-07T09:19:46.672Z,73.83
2023-04-07T09:24:51.829Z,74.20
2023-04-07T09:30:16.558Z,74.27
2023-04-07T09:35:24.596Z,74.49
2023-04-07T09:40:28.494Z,73.93
2023-04-07T09:45:36.972Z,72.96
2023-04-07T09:50:42.814Z,73.11
2023-04-07T09:55:48.001Z,72.70
2023-04-07T10:00:53.098Z,72.46
2023-04-07T10:05:57.189Z,72.36
2023-04-07T10:11:05.257Z,72.77
2023-04-07T10:16:09.888Z,72.98
2023-04-07T10:21:16.114Z,72.46
2023-04-07T10:26:25.283Z,72.39
2023-04-07T10:31:29.688Z,72.41
2023-04-07T10:36:34.914Z,72.26
2023-04-07T10:41:40.687Z,72.14
2023-04-07T10:46:51.528Z,72.17
2023-04-07T10:52:13.503Z,72.60
2023-04-07T10:57:18.668Z,72.54
2023-04-07T11:02:25.762Z,73.06
2023-04-07T11:08:00.065Z,73.09
2023-04-07T11:13:09.253Z,70.85
2023-04-07T11:18:21.615Z,68.17
2023-04-07T11:23:26.277Z,67.04
2023-04-07T11:28:31.620Z,63.40
2023-04-07T11:33:37.875Z,60.56
2023-04-07T11:38:45.451Z,61.51
2023-04-07T11:44:04.480Z,61.41
2023-04-07T11:49:13.916Z,59.70
2023-04-07T11:54:17.754Z,59.41
2023-04-07T11:59:24.503Z,56.20
2023-04-07T12:04:28.422Z,54.74
2023-04-07T12:09:36.709Z,52.60
2023-04-07T12:14:40.606Z,52.14
2023-04-07T12:19:44.667Z,50.50
2023-04-07T12:24:48.592Z,49.34
2023-04-07T12:29:52.757Z,50.38
2023-04-07T12:34:56.619Z,49.68
2023-04-07T12:40:01.214Z,48.07
2023-04-07T12:45:07.138Z,47.31
2023-04-07T12:50:12.494Z,47.15
2023-04-07T12:55:16.364Z,46.54
2023-04-07T13:00:20.410Z,44.99
2023-04-07T13:05:24.856Z,45.76
2023-04-07T13:10:29.252Z,43.84
2023-04-07T13:15:34.177Z,44.13
2023-04-07T13:20:38.358Z,42.88
2023-04-07T13:25:43.387Z,42.60
2023-04-07T13:30:48.371Z,43.38
2023-04-07T13:35:53.483Z,42.48
2023-04-07T13:40:57.316Z,41.45
2023-04-07T13:46:01.561Z,42.79
2023-04-07T13:51:05.506Z,42.80
2023-04-07T13:56:10.615Z,42.06
2023-04-07T14:01:14.845Z,42.95
2023-04-07T14:06:18.874Z,41.99
2023-04-07T14:11:23.618Z,42.56
2023-04-07T14:16:28.015Z,42.28
2023-04-07T14:21:32.152Z,42.05
2023-04-07T14:26:36.273Z,42.62
2023-04-07T14:31:41.087Z,41.21
2023-04-07T14:36:55.648Z,40.98
2023-04-07T14:41:59.565Z,40.86
2023-04-07T14:47:03.583Z,39.92
2023-04-07T14:52:07.644Z,39.64
2023-04-07T14:57:12.602Z,40.05
2023-04-07T15:02:16.642Z,40.47
2023-04-07T15:07:20.741Z,39.59
2023-04-07T15:12:24.948Z,40.34
2023-04-07T15:17:40.601Z,40.72
2023-04-07T15:22:47.772Z,40.11
2023-04-07T15:27:51.842Z,38.84
2023-04-07T15:33:04.948Z,38.50
2023-04-07T15:38:08.882Z,39.31
2023-04-07T15:43:12.931Z,38.75
2023-04-07T15:48:17.176Z,39.59
2023-04-07T15:53:21.613Z,40.01
2023-04-07T15:58:25.783Z,38.39
2023-04-07T16:03:30.003Z,38.85
2023-04-07T16:08:34.215Z,39.05
2023-04-07T16:13:38.111Z,40.23
2023-04-07T16:18:43.346Z,39.58
2023-04-07T16:23:47.535Z,38.46
2023-04-07T16:28:52.584Z,38.39
2023-04-07T16:33:56.505Z,39.92
2023-04-07T16:39:00.617Z,40.35
2023-04-07T16:44:04.541Z,40.35
2023-04-07T16:49:08.380Z,40.30
2023-04-07T16:54:12.436Z,40.79
2023-04-07T16:59:16.274Z,40.75
2023-04-07T17:04:20.393Z,40.84
2023-04-07T17:09:24.475Z,41.40
2023-04-07T17:14:29.317Z,41.77
2023-04-07T17:19:33.555Z,41.70
2023-04-07T17:24:37.409Z,42.53
2023-04-07T17:29:41.437Z,42.67
2023-04-07T17:34:45.497Z,42.71
2023-04-07T17:39:49.370Z,42.02
2023-04-07T17:44:54.350Z,42.02
2023-04-07T17:49:58.250Z,42.39
2023-04-07T17:55:04.063Z,42.86
2023-04-07T18:00:08.713Z,42.92
2023-04-07T18:05:20.642Z,42.66
2023-04-07T18:10:24.876Z,43.19
2023-04-07T18:15:28.937Z,43.38
2023-04-07T18:20:33.709Z,42.98
2023-04-07T18:25:37.785Z,43.30
2023-04-07T18:30:43.647Z,43.26
2023-04-07T18:35:47.608Z,43.58
2023-04-07T18:40:51.856Z,43.96
2023-04-07T18:45:55.834Z,43.81
2023-04-07T18:51:00.572Z,43.81
2023-04-07T18:56:05.885Z,44.29
2023-04-07T19:01:09.921Z,44.39
2023-04-07T19:06:17.658Z,44.07
2023-04-07T19:11:21.450Z,44.45
2023-04-07T19:16:25.745Z,44.13
2023-04-07T19:21:29.795Z,44.64
2023-04-07T19:26:34.569Z,44.06
2023-04-07T19:31:39.105Z,44.51
2023-04-07T19:36:43.104Z,44.50
2023-04-07T19:41:46.877Z,44.57
2023-04-07T19:46:52.948Z,44.46
2023-04-07T19:51:57.792Z,44.61
2023-04-07T19:57:02.659Z,44.54
2023-04-07T20:02:07.479Z,45.18
2023-04-07T20:07:11.626Z,45.77
2023-04-07T20:12:15.702Z,45.40
2023-04-07T20:17:20.977Z,45.54
2023-04-07T20:22:25.059Z,45.23
2023-04-07T20:27:28.959Z,45.10
2023-04-07T20:32:32.995Z,45.48
2023-04-07T20:37:36.787Z,45.59
2023-04-07T20:42:40.831Z,45.19
2023-04-07T20:47:44.817Z,45.57
2023-04-07T20:52:48.923Z,45.51
2023-04-07T20:57:55.194Z,44.96
2023-04-07T21:02:59.130Z,45.31
2023-04-07T21:08:03.354Z,45.97
2023-04-07T21:13:07.126Z,45.74
2023-04-07T21:18:12.893Z,45.91
2023-04-07T21:23:17.140Z,46.01
2023-04-07T21:28:21.136Z,46.19
2023-04-07T21:33:25.669Z,45.78
2023-04-07T21:38:29.535Z,45.85
2023-04-07T21:43:35.325Z,46.08
2023-04-07T21:48:39.109Z,46.15
2023-04-07T21:53:43.111Z,46.42
2023-04-07T21:58:48.054Z,45.97
2023-04-07T22:03:53.182Z,46.18
2023-04-07T22:09:01.806Z,46.12
2023-04-07T22:14:06.614Z,45.90
2023-04-07T22:19:10.479Z,46.25
2023-04-07T22:24:14.761Z,46.58
2023-04-07T22:29:18.632Z,46.40
2023-04-07T22:34:22.531Z,46.30
2023-04-07T22:39:27.527Z,46.40
2023-04-07T22:44:32.599Z,46.20
2023-04-07T22:49:36.416Z,46.83
2023-04-07T22:54:40.404Z,46.83
2023-04-07T22:59:44.300Z,46.48
2023-04-07T23:04:48.120Z,46.83
2023-04-07T23:09:52.131Z,46.92
2023-04-07T23:14:56.153Z,46.36
2023-04-07T23:20:00.040Z,47.08
2023-04-07T23:25:05.941Z,47.16
2023-04-07T23:30:10.155Z,47.51
2023-04-07T23:35:14.090Z,46.85
2023-04-07T23:40:18.011Z,47.10
2023-04-07T23:45:22.067Z,47.32
2023-04-07T23:50:28.411Z,47.48
2023-04-07T23:55:32.237Z,47.11
